sensor_id;sensor_type;location;lat;lon;timestamp;P1;durP1;ratioP1;P2;durP2;ratioP2
63326;SDS011;49452;48.366;10.926;2023-08-24T00:00:19;18.67;;;15.77;;
63326;SDS011;49452;48.366;10.926;2023-08-24T00:00:50;19.45;;;14.65;;
63326;SDS011;49452;48.366;10.926;2023-08-24T00:01:22;16.45;;;14.75;;
63326;SDS011;49452;48.366;10.926;2023-08-24T00:01:53;20.13;;;15.05;;
63326;SDS011;49452;48.366;10.926;2023-08-24T00:02:25;17.42;;;15.20;;
63326;SDS011;49452;48.366;10.926;2023-08-24T00:02:56;17.75;;;15.25;;
63326;SDS011;49452;48.366;10.926;2023-08-24T00:03:28;16.20;;;14.18;;
63326;SDS011;49452;48.366;10.926;2023-08-24T00:03:59;17.70;;;13.85;;
63326;SDS011;49452;48.366;10.926;2023-08-24T00:04:31;19.35;;;14.52;;
63326;SDS011;49452;48.366;10.926;2023-08-24T00:05:02;19.40;;;14.55;;
63326;SDS011;49452;48.366;10.926;2023-08-24T00:05:38;18.52;;;12.50;;
63326;SDS011;49452;48.366;10.926;2023-08-24T00:06:10;15.80;;;13.25;;
63326;SDS011;49452;48.366;10.926;2023-08-24T00:06:41;16.50;;;14.32;;
63326;SDS011;49452;48.366;10.926;2023-08-24T00:07:13;16.33;;;14.20;;
63326;SDS011;49452;48.366;10.926;2023-08-24T00:07:44;14.15;;;12.65;;
63326;SDS011;49452;48.366;10.926;2023-08-24T00:08:16;15.35;;;12.15;;
63326;SDS011;49452;48.366;10.926;2023-08-24T00:08:48;16.45;;;12.63;;
63326;SDS011;49452;48.366;10.926;2023-08-24T00:09:20;16.48;;;13.15;;
63326;SDS011;49452;48.366;10.926;2023-08-24T00:09:52;17.67;;;15.18;;
63326;SDS011;49452;48.366;10.926;2023-08-24T00:10:25;18.02;;;13.85;;
63326;SDS011;49452;48.366;10.926;2023-08-24T00:10:56;15.35;;;13.75;;
63326;SDS011;49452;48.366;10.926;2023-08-24T00:11:28;14.07;;;12.68;;
63326;SDS011;49452;48.366;10.926;2023-08-24T00:11:59;15.95;;;12.98;;
63326;SDS011;49452;48.366;10.926;2023-08-24T00:12:32;19.23;;;14.40;;
63326;SDS011;49452;48.366;10.926;2023-08-24T00:13:04;18.67;;;14.80;;
63326;SDS011;49452;48.366;10.926;2023-08-24T00:13:35;17.52;;;14.23;;
63326;SDS011;49452;48.366;10.926;2023-08-24T00:14:07;19.58;;;15.48;;
63326;SDS011;49452;48.366;10.926;2023-08-24T00:14:38;20.58;;;16.88;;
63326;SDS011;49452;48.366;10.926;2023-08-24T00:15:09;17.63;;;15.65;;
63326;SDS011;49452;48.366;10.926;2023-08-24T00:15:41;19.40;;;14.50;;
63326;SDS011;49452;48.366;10.926;2023-08-24T00:16:12;19.23;;;15.25;;
63326;SDS011;49452;48.366;10.926;2023-08-24T00:16:46;18.60;;;15.68;;
63326;SDS011;49452;48.366;10.926;2023-08-24T00:17:18;20.48;;;16.08;;
63326;SDS011;49452;48.366;10.926;2023-08-24T00:17:50;19.92;;;15.68;;
63326;SDS011;49452;48.366;10.926;2023-08-24T00:18:21;18.13;;;16.10;;
63326;SDS011;49452;48.366;10.926;2023-08-24T00:18:53;18.98;;;15.75;;
63326;SDS011;49452;48.366;10.926;2023-08-24T00:19:24;21.55;;;15.00;;
63326;SDS011;49452;48.366;10.926;2023-08-24T00:19:55;15.00;;;13.38;;
63326;SDS011;49452;48.366;10.926;2023-08-24T00:20:27;15.82;;;14.15;;
63326;SDS011;49452;48.366;10.926;2023-08-24T00:20:58;24.10;;;17.48;;
63326;SDS011;49452;48.366;10.926;2023-08-24T00:21:29;20.90;;;16.58;;
63326;SDS011;49452;48.366;10.926;2023-08-24T00:22:01;23.60;;;16.35;;
63326;SDS011;49452;48.366;10.926;2023-08-24T00:22:33;19.05;;;14.55;;
63326;SDS011;49452;48.366;10.926;2023-08-24T00:23:04;20.38;;;15.45;;
63326;SDS011;49452;48.366;10.926;2023-08-24T00:23:35;16.33;;;14.73;;
63326;SDS011;49452;48.366;10.926;2023-08-24T00:24:07;17.52;;;15.60;;
63326;SDS011;49452;48.366;10.926;2023-08-24T00:24:38;21.52;;;16.30;;
63326;SDS011;49452;48.366;10.926;2023-08-24T00:25:09;21.48;;;17.70;;
63326;SDS011;49452;48.366;10.926;2023-08-24T00:25:41;16.27;;;14.68;;
63326;SDS011;49452;48.366;10.926;2023-08-24T00:26:12;19.73;;;15.20;;
63326;SDS011;49452;48.366;10.926;2023-08-24T00:26:43;19.45;;;14.90;;
63326;SDS011;49452;48.366;10.926;2023-08-24T00:27:15;19.27;;;15.85;;
63326;SDS011;49452;48.366;10.926;2023-08-24T00:27:46;18.00;;;15.30;;
63326;SDS011;49452;48.366;10.926;2023-08-24T00:28:18;19.38;;;15.35;;
63326;SDS011;49452;48.366;10.926;2023-08-24T00:28:49;18.92;;;15.60;;
63326;SDS011;49452;48.366;10.926;2023-08-24T00:29:20;15.88;;;14.18;;
63326;SDS011;49452;48.366;10.926;2023-08-24T00:29:54;20.38;;;16.77;;
63326;SDS011;49452;48.366;10.926;2023-08-24T00:30:25;24.95;;;18.60;;
63326;SDS011;49452;48.366;10.926;2023-08-24T00:30:57;20.90;;;17.15;;
63326;SDS011;49452;48.366;10.926;2023-08-24T00:31:28;19.63;;;17.52;;
63326;SDS011;49452;48.366;10.926;2023-08-24T00:31:59;22.75;;;17.85;;
63326;SDS011;49452;48.366;10.926;2023-08-24T00:32:30;22.73;;;16.15;;
63326;SDS011;49452;48.366;10.926;2023-08-24T00:33:05;18.05;;;14.57;;
63326;SDS011;49452;48.366;10.926;2023-08-24T00:33:36;18.27;;;15.27;;
63326;SDS011;49452;48.366;10.926;2023-08-24T00:34:07;22.52;;;16.13;;
63326;SDS011;49452;48.366;10.926;2023-08-24T00:34:39;21.02;;;16.58;;
63326;SDS011;49452;48.366;10.926;2023-08-24T00:35:10;22.38;;;16.83;;
63326;SDS011;49452;48.366;10.926;2023-08-24T00:35:42;21.00;;;16.95;;
63326;SDS011;49452;48.366;10.926;2023-08-24T00:36:13;19.92;;;16.27;;
63326;SDS011;49452;48.366;10.926;2023-08-24T00:36:44;19.33;;;16.77;;
63326;SDS011;49452;48.366;10.926;2023-08-24T00:37:16;20.77;;;16.05;;
63326;SDS011;49452;48.366;10.926;2023-08-24T00:37:48;21.77;;;16.45;;
63326;SDS011;49452;48.366;10.926;2023-08-24T00:38:20;23.58;;;15.93;;
63326;SDS011;49452;48.366;10.926;2023-08-24T00:38:51;21.70;;;16.40;;
63326;SDS011;49452;48.366;10.926;2023-08-24T00:39:24;21.15;;;17.00;;
63326;SDS011;49452;48.366;10.926;2023-08-24T00:39:55;21.05;;;17.33;;
63326;SDS011;49452;48.366;10.926;2023-08-24T00:40:26;18.05;;;15.82;;
63326;SDS011;49452;48.366;10.926;2023-08-24T00:40:58;20.92;;;15.90;;
63326;SDS011;49452;48.366;10.926;2023-08-24T00:41:30;23.15;;;17.27;;
63326;SDS011;49452;48.366;10.926;2023-08-24T00:42:01;20.65;;;17.23;;
63326;SDS011;49452;48.366;10.926;2023-08-24T00:42:32;18.38;;;16.33;;
63326;SDS011;49452;48.366;10.926;2023-08-24T00:43:03;24.17;;;17.05;;
63326;SDS011;49452;48.366;10.926;2023-08-24T00:43:35;20.23;;;16.05;;
63326;SDS011;49452;48.366;10.926;2023-08-24T00:44:07;22.02;;;16.75;;
63326;SDS011;49452;48.366;10.926;2023-08-24T00:44:38;23.75;;;17.50;;
63326;SDS011;49452;48.366;10.926;2023-08-24T00:45:10;23.15;;;16.77;;
63326;SDS011;49452;48.366;10.926;2023-08-24T00:45:43;24.10;;;18.33;;
63326;SDS011;49452;48.366;10.926;2023-08-24T00:46:14;24.38;;;17.35;;
63326;SDS011;49452;48.366;10.926;2023-08-24T00:46:46;19.58;;;17.20;;
63326;SDS011;49452;48.366;10.926;2023-08-24T00:47:17;22.60;;;18.38;;
63326;SDS011;49452;48.366;10.926;2023-08-24T00:47:49;23.02;;;18.42;;
63326;SDS011;49452;48.366;10.926;2023-08-24T00:48:22;25.95;;;19.20;;
63326;SDS011;49452;48.366;10.926;2023-08-24T00:48:59;22.73;;;19.35;;
63326;SDS011;49452;48.366;10.926;2023-08-24T00:49:30;23.20;;;18.42;;
63326;SDS011;49452;48.366;10.926;2023-08-24T00:50:02;23.45;;;18.65;;
63326;SDS011;49452;48.366;10.926;2023-08-24T00:50:34;25.30;;;18.55;;
63326;SDS011;49452;48.366;10.926;2023-08-24T00:51:06;20.48;;;16.85;;
63326;SDS011;49452;48.366;10.926;2023-08-24T00:51:37;23.50;;;18.08;;
63326;SDS011;49452;48.366;10.926;2023-08-24T00:52:09;21.20;;;18.77;;
63326;SDS011;49452;48.366;10.926;2023-08-24T00:52:41;27.25;;;18.80;;
63326;SDS011;49452;48.366;10.926;2023-08-24T00:53:13;22.90;;;18.83;;
63326;SDS011;49452;48.366;10.926;2023-08-24T00:53:45;23.23;;;19.40;;
63326;SDS011;49452;48.366;10.926;2023-08-24T00:54:16;24.67;;;19.40;;
63326;SDS011;49452;48.366;10.926;2023-08-24T00:54:48;27.65;;;19.98;;
63326;SDS011;49452;48.366;10.926;2023-08-24T00:55:20;23.67;;;19.80;;
63326;SDS011;49452;48.366;10.926;2023-08-24T00:55:52;26.42;;;21.02;;
63326;SDS011;49452;48.366;10.926;2023-08-24T00:56:23;27.85;;;19.65;;
63326;SDS011;49452;48.366;10.926;2023-08-24T00:56:55;26.67;;;19.70;;
63326;SDS011;49452;48.366;10.926;2023-08-24T00:57:27;23.58;;;19.63;;
63326;SDS011;49452;48.366;10.926;2023-08-24T00:57:58;24.13;;;19.23;;
63326;SDS011;49452;48.366;10.926;2023-08-24T00:58:31;24.17;;;20.10;;
63326;SDS011;49452;48.366;10.926;2023-08-24T00:59:02;26.25;;;18.45;;
63326;SDS011;49452;48.366;10.926;2023-08-24T00:59:34;25.48;;;19.48;;
63326;SDS011;49452;48.366;10.926;2023-08-24T01:00:05;21.48;;;19.38;;
63326;SDS011;49452;48.366;10.926;2023-08-24T01:00:41;24.35;;;19.33;;
63326;SDS011;49452;48.366;10.926;2023-08-24T01:01:12;24.42;;;20.10;;
63326;SDS011;49452;48.366;10.926;2023-08-24T01:01:46;26.85;;;20.80;;
63326;SDS011;49452;48.366;10.926;2023-08-24T01:02:18;25.20;;;21.00;;
63326;SDS011;49452;48.366;10.926;2023-08-24T01:02:49;26.40;;;19.60;;
63326;SDS011;49452;48.366;10.926;2023-08-24T01:03:23;26.23;;;20.27;;
63326;SDS011;49452;48.366;10.926;2023-08-24T01:03:56;26.67;;;22.02;;
63326;SDS011;49452;48.366;10.926;2023-08-24T01:04:27;24.83;;;20.45;;
63326;SDS011;49452;48.366;10.926;2023-08-24T01:05:00;27.75;;;22.77;;
63326;SDS011;49452;48.366;10.926;2023-08-24T01:05:31;29.25;;;22.60;;
63326;SDS011;49452;48.366;10.926;2023-08-24T01:06:02;26.88;;;21.25;;
63326;SDS011;49452;48.366;10.926;2023-08-24T01:06:33;27.83;;;22.20;;
63326;SDS011;49452;48.366;10.926;2023-08-24T01:07:05;29.33;;;22.48;;
63326;SDS011;49452;48.366;10.926;2023-08-24T01:07:38;29.52;;;21.75;;
63326;SDS011;49452;48.366;10.926;2023-08-24T01:08:12;29.30;;;23.17;;
63326;SDS011;49452;48.366;10.926;2023-08-24T01:08:44;32.15;;;25.13;;
63326;SDS011;49452;48.366;10.926;2023-08-24T01:09:15;25.63;;;22.13;;
63326;SDS011;49452;48.366;10.926;2023-08-24T01:09:47;32.67;;;24.08;;
63326;SDS011;49452;48.366;10.926;2023-08-24T01:10:19;28.65;;;23.35;;
63326;SDS011;49452;48.366;10.926;2023-08-24T01:13:42;35.70;;;24.40;;
63326;SDS011;49452;48.366;10.926;2023-08-24T01:14:22;29.88;;;21.80;;
63326;SDS011;49452;48.366;10.926;2023-08-24T01:16:25;25.23;;;20.13;;
63326;SDS011;49452;48.366;10.926;2023-08-24T01:16:58;24.02;;;20.83;;
63326;SDS011;49452;48.366;10.926;2023-08-24T01:17:33;25.52;;;21.52;;
63326;SDS011;49452;48.366;10.926;2023-08-24T01:18:13;24.15;;;20.75;;
63326;SDS011;49452;48.366;10.926;2023-08-24T01:18:47;26.98;;;22.75;;
63326;SDS011;49452;48.366;10.926;2023-08-24T01:19:22;26.88;;;21.58;;
63326;SDS011;49452;48.366;10.926;2023-08-24T01:20:02;25.95;;;20.92;;
63326;SDS011;49452;48.366;10.926;2023-08-24T01:20:36;35.60;;;25.42;;
63326;SDS011;49452;48.366;10.926;2023-08-24T01:21:09;30.45;;;24.92;;
63326;SDS011;49452;48.366;10.926;2023-08-24T01:21:41;26.30;;;22.58;;
63326;SDS011;49452;48.366;10.926;2023-08-24T01:24:45;26.48;;;20.58;;
63326;SDS011;49452;48.366;10.926;2023-08-24T01:26:34;26.75;;;19.95;;
63326;SDS011;49452;48.366;10.926;2023-08-24T01:27:06;25.98;;;21.83;;
63326;SDS011;49452;48.366;10.926;2023-08-24T01:27:39;23.98;;;20.90;;
63326;SDS011;49452;48.366;10.926;2023-08-24T01:28:11;27.67;;;22.60;;
63326;SDS011;49452;48.366;10.926;2023-08-24T01:28:44;23.80;;;21.23;;
63326;SDS011;49452;48.366;10.926;2023-08-24T01:29:16;24.20;;;21.52;;
63326;SDS011;49452;48.366;10.926;2023-08-24T01:29:49;30.65;;;23.35;;
63326;SDS011;49452;48.366;10.926;2023-08-24T01:30:21;29.02;;;23.95;;
63326;SDS011;49452;48.366;10.926;2023-08-24T01:30:52;25.80;;;22.95;;
63326;SDS011;49452;48.366;10.926;2023-08-24T01:31:24;26.80;;;23.05;;
63326;SDS011;49452;48.366;10.926;2023-08-24T01:31:55;25.55;;;20.85;;
63326;SDS011;49452;48.366;10.926;2023-08-24T01:32:26;26.33;;;21.27;;
63326;SDS011;49452;48.366;10.926;2023-08-24T01:33:02;28.75;;;22.40;;
63326;SDS011;49452;48.366;10.926;2023-08-24T01:33:43;27.20;;;21.70;;
63326;SDS011;49452;48.366;10.926;2023-08-24T01:34:15;30.80;;;23.08;;
63326;SDS011;49452;48.366;10.926;2023-08-24T01:34:46;25.42;;;22.08;;
63326;SDS011;49452;48.366;10.926;2023-08-24T01:35:18;22.45;;;19.92;;
63326;SDS011;49452;48.366;10.926;2023-08-24T01:35:49;31.05;;;21.73;;
63326;SDS011;49452;48.366;10.926;2023-08-24T01:36:20;27.13;;;20.23;;
63326;SDS011;49452;48.366;10.926;2023-08-24T01:36:52;27.02;;;21.95;;
63326;SDS011;49452;48.366;10.926;2023-08-24T01:37:23;25.48;;;22.02;;
63326;SDS011;49452;48.366;10.926;2023-08-24T01:37:55;24.92;;;20.70;;
63326;SDS011;49452;48.366;10.926;2023-08-24T01:38:26;23.35;;;20.38;;
63326;SDS011;49452;48.366;10.926;2023-08-24T01:38:59;25.80;;;21.58;;
63326;SDS011;49452;48.366;10.926;2023-08-24T01:39:46;23.13;;;20.05;;
63326;SDS011;49452;48.366;10.926;2023-08-24T01:40:48;26.65;;;21.38;;
63326;SDS011;49452;48.366;10.926;2023-08-24T01:41:26;24.77;;;20.10;;
63326;SDS011;49452;48.366;10.926;2023-08-24T01:42:00;24.75;;;20.55;;
63326;SDS011;49452;48.366;10.926;2023-08-24T01:42:33;30.67;;;22.05;;
63326;SDS011;49452;48.366;10.926;2023-08-24T01:43:07;27.40;;;21.95;;
63326;SDS011;49452;48.366;10.926;2023-08-24T01:43:39;26.98;;;22.30;;
63326;SDS011;49452;48.366;10.926;2023-08-24T01:44:13;27.10;;;20.88;;
63326;SDS011;49452;48.366;10.926;2023-08-24T01:44:47;25.65;;;20.92;;
63326;SDS011;49452;48.366;10.926;2023-08-24T01:45:20;24.45;;;20.33;;
63326;SDS011;49452;48.366;10.926;2023-08-24T01:45:53;26.20;;;21.15;;
63326;SDS011;49452;48.366;10.926;2023-08-24T01:46:26;22.33;;;19.92;;
63326;SDS011;49452;48.366;10.926;2023-08-24T01:46:57;23.67;;;20.95;;
63326;SDS011;49452;48.366;10.926;2023-08-24T01:47:33;24.95;;;19.05;;
63326;SDS011;49452;48.366;10.926;2023-08-24T01:48:05;21.80;;;19.48;;
63326;SDS011;49452;48.366;10.926;2023-08-24T01:48:38;23.20;;;18.25;;
63326;SDS011;49452;48.366;10.926;2023-08-24T01:49:11;23.33;;;20.73;;
63326;SDS011;49452;48.366;10.926;2023-08-24T01:49:43;27.90;;;21.13;;
63326;SDS011;49452;48.366;10.926;2023-08-24T01:50:15;21.98;;;19.70;;
63326;SDS011;49452;48.366;10.926;2023-08-24T01:50:47;25.50;;;21.42;;
63326;SDS011;49452;48.366;10.926;2023-08-24T01:51:18;27.52;;;22.35;;
63326;SDS011;49452;48.366;10.926;2023-08-24T01:51:50;25.02;;;21.92;;
63326;SDS011;49452;48.366;10.926;2023-08-24T01:52:22;26.38;;;20.13;;
63326;SDS011;49452;48.366;10.926;2023-08-24T01:52:53;25.15;;;19.75;;
63326;SDS011;49452;48.366;10.926;2023-08-24T01:53:25;23.48;;;19.60;;
63326;SDS011;49452;48.366;10.926;2023-08-24T01:53:58;23.15;;;20.15;;
63326;SDS011;49452;48.366;10.926;2023-08-24T01:54:29;22.95;;;20.30;;
63326;SDS011;49452;48.366;10.926;2023-08-24T01:55:00;26.25;;;19.88;;
63326;SDS011;49452;48.366;10.926;2023-08-24T01:55:32;24.27;;;20.65;;
63326;SDS011;49452;48.366;10.926;2023-08-24T01:56:09;23.30;;;20.83;;
63326;SDS011;49452;48.366;10.926;2023-08-24T01:56:44;23.38;;;19.50;;
63326;SDS011;49452;48.366;10.926;2023-08-24T01:57:15;24.48;;;21.80;;
63326;SDS011;49452;48.366;10.926;2023-08-24T01:57:48;23.80;;;21.23;;
63326;SDS011;49452;48.366;10.926;2023-08-24T01:58:20;33.30;;;24.38;;
63326;SDS011;49452;48.366;10.926;2023-08-24T01:58:51;28.52;;;23.23;;
63326;SDS011;49452;48.366;10.926;2023-08-24T01:59:23;27.65;;;22.70;;
63326;SDS011;49452;48.366;10.926;2023-08-24T01:59:54;29.67;;;22.98;;
63326;SDS011;49452;48.366;10.926;2023-08-24T02:00:25;30.20;;;23.30;;
63326;SDS011;49452;48.366;10.926;2023-08-24T02:00:57;29.15;;;22.40;;
63326;SDS011;49452;48.366;10.926;2023-08-24T02:01:28;29.05;;;21.77;;
63326;SDS011;49452;48.366;10.926;2023-08-24T02:02:00;29.50;;;22.45;;
63326;SDS011;49452;48.366;10.926;2023-08-24T02:02:32;28.50;;;22.90;;
63326;SDS011;49452;48.366;10.926;2023-08-24T02:03:05;24.73;;;22.10;;
63326;SDS011;49452;48.366;10.926;2023-08-24T02:03:36;33.97;;;21.50;;
63326;SDS011;49452;48.366;10.926;2023-08-24T02:04:10;24.85;;;21.98;;
63326;SDS011;49452;48.366;10.926;2023-08-24T02:04:41;32.85;;;23.20;;
63326;SDS011;49452;48.366;10.926;2023-08-24T02:05:12;24.65;;;21.08;;
63326;SDS011;49452;48.366;10.926;2023-08-24T02:05:43;25.63;;;21.08;;
63326;SDS011;49452;48.366;10.926;2023-08-24T02:06:15;25.80;;;21.83;;
63326;SDS011;49452;48.366;10.926;2023-08-24T02:06:46;25.45;;;22.45;;
63326;SDS011;49452;48.366;10.926;2023-08-24T02:07:17;26.05;;;22.75;;
63326;SDS011;49452;48.366;10.926;2023-08-24T02:07:49;24.45;;;21.58;;
63326;SDS011;49452;48.366;10.926;2023-08-24T02:08:20;28.02;;;20.80;;
63326;SDS011;49452;48.366;10.926;2023-08-24T02:08:51;25.90;;;21.85;;
63326;SDS011;49452;48.366;10.926;2023-08-24T02:09:22;25.23;;;21.63;;
63326;SDS011;49452;48.366;10.926;2023-08-24T02:09:56;27.73;;;22.95;;
63326;SDS011;49452;48.366;10.926;2023-08-24T02:10:27;24.38;;;21.27;;
63326;SDS011;49452;48.366;10.926;2023-08-24T02:10:59;23.85;;;20.38;;
63326;SDS011;49452;48.366;10.926;2023-08-24T02:11:30;29.90;;;23.20;;
63326;SDS011;49452;48.366;10.926;2023-08-24T02:12:01;30.33;;;22.42;;
63326;SDS011;49452;48.366;10.926;2023-08-24T02:12:33;28.42;;;21.63;;
63326;SDS011;49452;48.366;10.926;2023-08-24T02:13:04;24.70;;;21.33;;
63326;SDS011;49452;48.366;10.926;2023-08-24T02:13:37;27.10;;;20.85;;
63326;SDS011;49452;48.366;10.926;2023-08-24T02:14:08;24.08;;;20.58;;
63326;SDS011;49452;48.366;10.926;2023-08-24T02:14:42;27.70;;;22.35;;
63326;SDS011;49452;48.366;10.926;2023-08-24T02:15:13;25.70;;;22.92;;
63326;SDS011;49452;48.366;10.926;2023-08-24T02:15:45;27.55;;;21.55;;
63326;SDS011;49452;48.366;10.926;2023-08-24T02:16:18;27.15;;;22.05;;
63326;SDS011;49452;48.366;10.926;2023-08-24T02:16:50;26.95;;;22.60;;
63326;SDS011;49452;48.366;10.926;2023-08-24T02:17:22;27.73;;;21.95;;
63326;SDS011;49452;48.366;10.926;2023-08-24T02:17:53;27.88;;;22.60;;
63326;SDS011;49452;48.366;10.926;2023-08-24T02:18:25;24.77;;;22.17;;
63326;SDS011;49452;48.366;10.926;2023-08-24T02:18:56;27.30;;;22.33;;
63326;SDS011;49452;48.366;10.926;2023-08-24T02:19:28;31.70;;;23.98;;
63326;SDS011;49452;48.366;10.926;2023-08-24T02:20:00;28.38;;;22.95;;
63326;SDS011;49452;48.366;10.926;2023-08-24T02:20:34;39.40;;;24.73;;
63326;SDS011;49452;48.366;10.926;2023-08-24T02:21:07;29.50;;;24.33;;
63326;SDS011;49452;48.366;10.926;2023-08-24T02:21:40;28.42;;;23.80;;
63326;SDS011;49452;48.366;10.926;2023-08-24T02:22:11;34.88;;;24.60;;
63326;SDS011;49452;48.366;10.926;2023-08-24T02:22:42;30.08;;;24.55;;
63326;SDS011;49452;48.366;10.926;2023-08-24T02:23:13;34.47;;;25.90;;
63326;SDS011;49452;48.366;10.926;2023-08-24T02:23:45;33.75;;;26.13;;
63326;SDS011;49452;48.366;10.926;2023-08-24T02:24:16;32.35;;;26.27;;
63326;SDS011;49452;48.366;10.926;2023-08-24T02:24:47;33.50;;;25.98;;
63326;SDS011;49452;48.366;10.926;2023-08-24T02:25:19;32.78;;;26.95;;
63326;SDS011;49452;48.366;10.926;2023-08-24T02:25:50;31.38;;;25.42;;
63326;SDS011;49452;48.366;10.926;2023-08-24T02:26:21;32.35;;;26.83;;
63326;SDS011;49452;48.366;10.926;2023-08-24T02:26:53;37.03;;;28.45;;
63326;SDS011;49452;48.366;10.926;2023-08-24T02:27:25;40.33;;;27.40;;
63326;SDS011;49452;48.366;10.926;2023-08-24T02:27:56;34.75;;;27.50;;
63326;SDS011;49452;48.366;10.926;2023-08-24T02:28:28;31.55;;;25.73;;
63326;SDS011;49452;48.366;10.926;2023-08-24T02:28:59;34.03;;;28.23;;
63326;SDS011;49452;48.366;10.926;2023-08-24T02:29:31;34.03;;;28.02;;
63326;SDS011;49452;48.366;10.926;2023-08-24T02:30:02;37.97;;;28.50;;
63326;SDS011;49452;48.366;10.926;2023-08-24T02:30:36;41.13;;;31.30;;
63326;SDS011;49452;48.366;10.926;2023-08-24T02:31:09;36.65;;;28.90;;
63326;SDS011;49452;48.366;10.926;2023-08-24T02:31:40;30.15;;;26.02;;
63326;SDS011;49452;48.366;10.926;2023-08-24T02:32:12;44.90;;;32.55;;
63326;SDS011;49452;48.366;10.926;2023-08-24T02:32:43;44.78;;;32.90;;
63326;SDS011;49452;48.366;10.926;2023-08-24T02:33:14;42.03;;;32.20;;
63326;SDS011;49452;48.366;10.926;2023-08-24T02:33:46;34.53;;;28.40;;
63326;SDS011;49452;48.366;10.926;2023-08-24T02:34:17;35.75;;;28.27;;
63326;SDS011;49452;48.366;10.926;2023-08-24T02:34:49;40.95;;;31.33;;
63326;SDS011;49452;48.366;10.926;2023-08-24T02:35:20;40.97;;;29.27;;
63326;SDS011;49452;48.366;10.926;2023-08-24T02:35:51;38.97;;;30.30;;
63326;SDS011;49452;48.366;10.926;2023-08-24T02:36:23;46.63;;;32.80;;
63326;SDS011;49452;48.366;10.926;2023-08-24T02:36:56;61.65;;;37.45;;
63326;SDS011;49452;48.366;10.926;2023-08-24T02:37:28;41.75;;;31.60;;
63326;SDS011;49452;48.366;10.926;2023-08-24T02:38:00;49.22;;;32.88;;
63326;SDS011;49452;48.366;10.926;2023-08-24T02:38:31;47.47;;;33.58;;
63326;SDS011;49452;48.366;10.926;2023-08-24T02:39:04;47.55;;;32.97;;
63326;SDS011;49452;48.366;10.926;2023-08-24T02:39:36;42.15;;;32.28;;
63326;SDS011;49452;48.366;10.926;2023-08-24T02:40:08;47.05;;;33.72;;
63326;SDS011;49452;48.366;10.926;2023-08-24T02:40:40;40.30;;;32.22;;
63326;SDS011;49452;48.366;10.926;2023-08-24T02:41:11;40.33;;;30.83;;
63326;SDS011;49452;48.366;10.926;2023-08-24T02:41:43;43.50;;;33.63;;
63326;SDS011;49452;48.366;10.926;2023-08-24T02:42:14;48.10;;;34.42;;
63326;SDS011;49452;48.366;10.926;2023-08-24T02:42:45;48.42;;;36.22;;
63326;SDS011;49452;48.366;10.926;2023-08-24T02:43:16;54.20;;;35.42;;
63326;SDS011;49452;48.366;10.926;2023-08-24T02:43:48;38.95;;;32.38;;
63326;SDS011;49452;48.366;10.926;2023-08-24T02:44:19;39.70;;;30.23;;
63326;SDS011;49452;48.366;10.926;2023-08-24T02:44:51;43.40;;;31.70;;
63326;SDS011;49452;48.366;10.926;2023-08-24T02:45:22;36.95;;;30.75;;
63326;SDS011;49452;48.366;10.926;2023-08-24T02:45:53;38.17;;;31.13;;
63326;SDS011;49452;48.366;10.926;2023-08-24T02:46:24;43.75;;;33.95;;
63326;SDS011;49452;48.366;10.926;2023-08-24T02:46:55;43.55;;;32.40;;
63326;SDS011;49452;48.366;10.926;2023-08-24T02:47:27;54.80;;;38.88;;
63326;SDS011;49452;48.366;10.926;2023-08-24T02:47:58;40.67;;;34.05;;
63326;SDS011;49452;48.366;10.926;2023-08-24T02:48:29;45.88;;;34.40;;
63326;SDS011;49452;48.366;10.926;2023-08-24T02:49:01;43.67;;;32.80;;
63326;SDS011;49452;48.366;10.926;2023-08-24T02:49:32;40.38;;;32.83;;
63326;SDS011;49452;48.366;10.926;2023-08-24T02:50:04;48.42;;;35.53;;
63326;SDS011;49452;48.366;10.926;2023-08-24T02:50:37;61.03;;;40.13;;
63326;SDS011;49452;48.366;10.926;2023-08-24T02:51:09;41.45;;;34.47;;
63326;SDS011;49452;48.366;10.926;2023-08-24T02:51:41;50.53;;;35.85;;
63326;SDS011;49452;48.366;10.926;2023-08-24T02:52:13;49.00;;;34.83;;
63326;SDS011;49452;48.366;10.926;2023-08-24T02:52:44;54.38;;;36.78;;
63326;SDS011;49452;48.366;10.926;2023-08-24T02:53:16;47.97;;;35.78;;
63326;SDS011;49452;48.366;10.926;2023-08-24T02:53:48;54.22;;;39.17;;
63326;SDS011;49452;48.366;10.926;2023-08-24T02:54:19;48.38;;;37.35;;
63326;SDS011;49452;48.366;10.926;2023-08-24T02:54:53;48.22;;;35.35;;
63326;SDS011;49452;48.366;10.926;2023-08-24T02:55:25;47.83;;;36.72;;
63326;SDS011;49452;48.366;10.926;2023-08-24T02:55:56;59.67;;;39.92;;
63326;SDS011;49452;48.366;10.926;2023-08-24T02:56:28;48.88;;;36.42;;
63326;SDS011;49452;48.366;10.926;2023-08-24T02:56:59;47.55;;;36.33;;
63326;SDS011;49452;48.366;10.926;2023-08-24T02:57:30;50.55;;;35.25;;
63326;SDS011;49452;48.366;10.926;2023-08-24T02:58:02;53.53;;;38.67;;
63326;SDS011;49452;48.366;10.926;2023-08-24T02:58:33;50.47;;;37.40;;
63326;SDS011;49452;48.366;10.926;2023-08-24T02:59:04;60.78;;;41.08;;
63326;SDS011;49452;48.366;10.926;2023-08-24T02:59:36;63.55;;;43.55;;
63326;SDS011;49452;48.366;10.926;2023-08-24T03:00:07;49.97;;;36.75;;
63326;SDS011;49452;48.366;10.926;2023-08-24T03:00:40;60.90;;;41.03;;
63326;SDS011;49452;48.366;10.926;2023-08-24T03:01:11;51.30;;;36.42;;
63326;SDS011;49452;48.366;10.926;2023-08-24T03:01:43;53.53;;;37.90;;
63326;SDS011;49452;48.366;10.926;2023-08-24T03:02:15;52.78;;;38.28;;
63326;SDS011;49452;48.366;10.926;2023-08-24T03:02:46;50.28;;;38.22;;
63326;SDS011;49452;48.366;10.926;2023-08-24T03:03:19;50.15;;;38.58;;
63326;SDS011;49452;48.366;10.926;2023-08-24T03:03:50;58.05;;;38.53;;
63326;SDS011;49452;48.366;10.926;2023-08-24T03:04:22;65.13;;;42.83;;
63326;SDS011;49452;48.366;10.926;2023-08-24T03:04:53;60.22;;;43.00;;
63326;SDS011;49452;48.366;10.926;2023-08-24T03:05:26;72.97;;;44.95;;
63326;SDS011;49452;48.366;10.926;2023-08-24T03:05:58;61.83;;;42.15;;
63326;SDS011;49452;48.366;10.926;2023-08-24T03:06:32;62.63;;;44.63;;
63326;SDS011;49452;48.366;10.926;2023-08-24T03:07:03;56.22;;;40.47;;
63326;SDS011;49452;48.366;10.926;2023-08-24T03:07:38;73.68;;;46.58;;
63326;SDS011;49452;48.366;10.926;2023-08-24T03:08:09;61.83;;;44.72;;
63326;SDS011;49452;48.366;10.926;2023-08-24T03:08:40;61.72;;;43.75;;
63326;SDS011;49452;48.366;10.926;2023-08-24T03:09:12;66.53;;;45.90;;
63326;SDS011;49452;48.366;10.926;2023-08-24T03:09:43;46.42;;;38.42;;
63326;SDS011;49452;48.366;10.926;2023-08-24T03:10:14;61.47;;;42.80;;
63326;SDS011;49452;48.366;10.926;2023-08-24T03:10:46;53.08;;;39.38;;
63326;SDS011;49452;48.366;10.926;2023-08-24T03:11:17;55.95;;;41.42;;
63326;SDS011;49452;48.366;10.926;2023-08-24T03:11:48;50.45;;;39.90;;
63326;SDS011;49452;48.366;10.926;2023-08-24T03:12:19;59.03;;;42.30;;
63326;SDS011;49452;48.366;10.926;2023-08-24T03:12:51;65.63;;;43.08;;
63326;SDS011;49452;48.366;10.926;2023-08-24T03:13:22;63.10;;;43.78;;